sensor_id;sensor_type;location;lat;lon;timestamp;P1;durP1;ratioP1;P2;durP2;ratioP2
57323;SDS011;43160;51.008;18.248;2023-04-06T00:03:55;49.20;;;18.10;;
57323;SDS011;43160;51.008;18.248;2023-04-06T00:13:40;37.10;;;10.00;;
57323;SDS011;43160;51.008;18.248;2023-04-06T00:23:23;23.80;;;10.60;;
57323;SDS011;43160;51.008;18.248;2023-04-06T00:33:07;55.40;;;13.80;;
57323;SDS011;43160;51.008;18.248;2023-04-06T00:42:54;37.80;;;8.20;;
57323;SDS011;43160;51.008;18.248;2023-04-06T00:52:37;37.10;;;13.00;;
57323;SDS011;43160;51.008;18.248;2023-04-06T01:02:23;32.40;;;10.20;;
57323;SDS011;43160;51.008;18.248;2023-04-06T01:12:09;52.10;;;15.40;;
57323;SDS011;43160;51.008;18.248;2023-04-06T01:21:53;38.30;;;13.30;;
57323;SDS011;43160;51.008;18.248;2023-04-06T01:31:37;22.50;;;8.50;;
57323;SDS011;43160;51.008;18.248;2023-04-06T01:41:21;37.80;;;15.70;;
57323;SDS011;43160;51.008;18.248;2023-04-06T01:51:04;37.30;;;14.00;;
57323;SDS011;43160;51.008;18.248;2023-04-06T01:55:56;63.40;;;31.20;;
57323;SDS011;43160;51.008;18.248;2023-04-06T02:05:40;56.80;;;19.10;;
57323;SDS011;43160;51.008;18.248;2023-04-06T02:15:27;27.00;;;12.20;;
57323;SDS011;43160;51.008;18.248;2023-04-06T02:25:11;40.70;;;18.20;;
57323;SDS011;43160;51.008;18.248;2023-04-06T02:34:56;32.00;;;12.90;;
57323;SDS011;43160;51.008;18.248;2023-04-06T02:44:41;37.40;;;16.50;;
57323;SDS011;43160;51.008;18.248;2023-04-06T02:54:25;51.30;;;18.30;;
57323;SDS011;43160;51.008;18.248;2023-04-06T03:04:09;45.00;;;16.70;;
57323;SDS011;43160;51.008;18.248;2023-04-06T03:13:52;33.50;;;11.00;;
57323;SDS011;43160;51.008;18.248;2023-04-06T03:23:36;31.40;;;12.60;;
57323;SDS011;43160;51.008;18.248;2023-04-06T03:33:21;36.40;;;11.30;;
57323;SDS011;43160;51.008;18.248;2023-04-06T03:43:04;34.00;;;15.40;;
57323;SDS011;43160;51.008;18.248;2023-04-06T03:52:48;26.40;;;9.60;;
57323;SDS011;43160;51.008;18.248;2023-04-06T04:02:31;27.20;;;11.60;;
57323;SDS011;43160;51.008;18.248;2023-04-06T04:12:14;42.40;;;14.50;;
57323;SDS011;43160;51.008;18.248;2023-04-06T04:22:00;47.00;;;15.80;;
57323;SDS011;43160;51.008;18.248;2023-04-06T04:31:46;26.90;;;10.70;;
57323;SDS011;43160;51.008;18.248;2023-04-06T04:41:29;38.00;;;11.10;;
57323;SDS011;43160;51.008;18.248;2023-04-06T04:51:13;30.60;;;11.80;;
57323;SDS011;43160;51.008;18.248;2023-04-06T05:00:56;24.70;;;9.20;;
57323;SDS011;43160;51.008;18.248;2023-04-06T05:10:41;29.90;;;10.80;;
57323;SDS011;43160;51.008;18.248;2023-04-06T05:20:26;30.30;;;12.20;;
57323;SDS011;43160;51.008;18.248;2023-04-06T05:30:11;30.40;;;14.30;;
57323;SDS011;43160;51.008;18.248;2023-04-06T05:54:30;32.00;;;11.40;;
57323;SDS011;43160;51.008;18.248;2023-04-06T06:04:13;26.10;;;12.20;;
57323;SDS011;43160;51.008;18.248;2023-04-06T06:13:56;33.60;;;10.10;;
57323;SDS011;43160;51.008;18.248;2023-04-06T06:23:43;29.60;;;14.60;;
57323;SDS011;43160;51.008;18.248;2023-04-06T06:33:27;37.00;;;14.00;;
57323;SDS011;43160;51.008;18.248;2023-04-06T06:43:11;29.70;;;12.20;;
57323;SDS011;43160;51.008;18.248;2023-04-06T06:52:54;36.90;;;17.20;;
57323;SDS011;43160;51.008;18.248;2023-04-06T07:02:38;46.00;;;20.00;;
57323;SDS011;43160;51.008;18.248;2023-04-06T07:12:26;49.50;;;18.20;;
57323;SDS011;43160;51.008;18.248;2023-04-06T07:22:11;34.80;;;15.90;;
57323;SDS011;43160;51.008;18.248;2023-04-06T07:31:56;43.20;;;14.60;;
57323;SDS011;43160;51.008;18.248;2023-04-06T07:41:39;35.50;;;14.20;;
57323;SDS011;43160;51.008;18.248;2023-04-06T07:51:25;34.00;;;12.90;;
57323;SDS011;43160;51.008;18.248;2023-04-06T08:01:09;31.00;;;13.20;;
57323;SDS011;43160;51.008;18.248;2023-04-06T08:10:53;19.90;;;10.10;;
57323;SDS011;43160;51.008;18.248;2023-04-06T08:20:37;20.50;;;9.70;;
57323;SDS011;43160;51.008;18.248;2023-04-06T08:30:21;23.90;;;9.70;;
57323;SDS011;43160;51.008;18.248;2023-04-06T08:40:05;19.10;;;9.30;;
57323;SDS011;43160;51.008;18.248;2023-04-06T08:49:49;16.60;;;6.10;;
57323;SDS011;43160;51.008;18.248;2023-04-06T08:59:38;14.90;;;6.10;;
57323;SDS011;43160;51.008;18.248;2023-04-06T09:09:25;17.90;;;8.60;;
57323;SDS011;43160;51.008;18.248;2023-04-06T09:19:21;12.80;;;6.20;;
57323;SDS011;43160;51.008;18.248;2023-04-06T09:29:24;11.70;;;4.60;;
57323;SDS011;43160;51.008;18.248;2023-04-06T09:39:22;14.80;;;5.70;;
57323;SDS011;43160;51.008;18.248;2023-04-06T09:49:10;12.40;;;6.30;;
57323;SDS011;43160;51.008;18.248;2023-04-06T09:59:05;17.10;;;7.90;;
57323;SDS011;43160;51.008;18.248;2023-04-06T10:09:05;14.80;;;7.50;;
57323;SDS011;43160;51.008;18.248;2023-04-06T10:18:52;13.60;;;7.30;;
57323;SDS011;43160;51.008;18.248;2023-04-06T10:28:46;11.20;;;5.30;;
57323;SDS011;43160;51.008;18.248;2023-04-06T10:38:39;12.70;;;6.00;;
57323;SDS011;43160;51.008;18.248;2023-04-06T10:48:35;9.00;;;4.80;;
57323;SDS011;43160;51.008;18.248;2023-04-06T10:58:25;13.40;;;6.10;;
57323;SDS011;43160;51.008;18.248;2023-04-06T11:08:21;11.20;;;4.60;;
57323;SDS011;43160;51.008;18.248;2023-04-06T11:18:06;13.10;;;5.80;;
57323;SDS011;43160;51.008;18.248;2023-04-06T11:27:53;12.60;;;6.20;;
57323;SDS011;43160;51.008;18.248;2023-04-06T11:37:38;14.50;;;5.20;;
57323;SDS011;43160;51.008;18.248;2023-04-06T11:47:29;14.40;;;7.30;;
57323;SDS011;43160;51.008;18.248;2023-04-06T11:49:55;16.60;;;8.20;;
57323;SDS011;43160;51.008;18.248;2023-04-06T11:59:44;12.90;;;6.10;;
57323;SDS011;43160;51.008;18.248;2023-04-06T12:09:29;13.60;;;6.80;;
57323;SDS011;43160;51.008;18.248;2023-04-06T12:26:31;15.70;;;6.70;;
57323;SDS011;43160;51.008;18.248;2023-04-06T12:36:21;14.10;;;7.00;;
57323;SDS011;43160;51.008;18.248;2023-04-06T12:46:06;12.70;;;6.40;;
57323;SDS011;43160;51.008;18.248;2023-04-06T12:55:51;15.30;;;6.40;;
57323;SDS011;43160;51.008;18.248;2023-04-06T13:05:42;14.30;;;5.40;;
57323;SDS011;43160;51.008;18.248;2023-04-06T13:15:28;16.70;;;6.30;;
57323;SDS011;43160;51.008;18.248;2023-04-06T13:25:12;16.00;;;7.40;;
57323;SDS011;43160;51.008;18.248;2023-04-06T13:34:57;15.50;;;7.50;;
57323;SDS011;43160;51.008;18.248;2023-04-06T13:44:41;18.30;;;9.50;;
57323;SDS011;43160;51.008;18.248;2023-04-06T13:54:26;15.60;;;6.30;;
57323;SDS011;43160;51.008;18.248;2023-04-06T14:04:10;14.10;;;7.70;;
57323;SDS011;43160;51.008;18.248;2023-04-06T14:13:55;9.00;;;5.20;;
57323;SDS011;43160;51.008;18.248;2023-04-06T14:23:40;19.10;;;8.70;;
57323;SDS011;43160;51.008;18.248;2023-04-06T14:33:26;14.00;;;6.70;;
57323;SDS011;43160;51.008;18.248;2023-04-06T14:43:10;16.90;;;8.60;;
57323;SDS011;43160;51.008;18.248;2023-04-06T14:52:58;15.90;;;7.70;;
57323;SDS011;43160;51.008;18.248;2023-04-06T15:02:43;14.10;;;7.30;;
57323;SDS011;43160;51.008;18.248;2023-04-06T15:12:28;19.80;;;9.70;;
57323;SDS011;43160;51.008;18.248;2023-04-06T15:22:13;12.80;;;6.50;;
57323;SDS011;43160;51.008;18.248;2023-04-06T15:31:56;15.80;;;7.30;;
57323;SDS011;43160;51.008;18.248;2023-04-06T15:41:40;15.30;;;7.80;;
57323;SDS011;43160;51.008;18.248;2023-04-06T15:51:23;11.80;;;4.80;;
57323;SDS011;43160;51.008;18.248;2023-04-06T16:01:10;20.40;;;8.60;;
57323;SDS011;43160;51.008;18.248;2023-04-06T16:10:55;13.40;;;6.50;;
57323;SDS011;43160;51.008;18.248;2023-04-06T16:20:41;23.60;;;8.50;;
57323;SDS011;43160;51.008;18.248;2023-04-06T16:30:24;18.70;;;7.90;;
57323;SDS011;43160;51.008;18.248;2023-04-06T16:40:11;18.60;;;9.40;;
57323;SDS011;43160;51.008;18.248;2023-04-06T16:49:54;17.10;;;7.30;;
57323;SDS011;43160;51.008;18.248;2023-04-06T16:59:37;11.30;;;4.50;;
57323;SDS011;43160;51.008;18.248;2023-04-06T17:09:21;25.10;;;9.40;;
57323;SDS011;43160;51.008;18.248;2023-04-06T17:19:06;16.00;;;8.00;;
57323;SDS011;43160;51.008;18.248;2023-04-06T17:28:49;24.20;;;8.40;;
57323;SDS011;43160;51.008;18.248;2023-04-06T17:38:35;19.30;;;8.00;;
57323;SDS011;43160;51.008;18.248;2023-04-06T17:48:21;16.80;;;5.20;;
57323;SDS011;43160;51.008;18.248;2023-04-06T17:58:04;20.60;;;9.50;;
57323;SDS011;43160;51.008;18.248;2023-04-06T18:07:49;10.60;;;3.70;;
57323;SDS011;43160;51.008;18.248;2023-04-06T18:17:35;20.50;;;9.10;;
57323;SDS011;43160;51.008;18.248;2023-04-06T18:27:19;15.10;;;5.50;;
57323;SDS011;43160;51.008;18.248;2023-04-06T18:37:06;12.30;;;4.70;;
57323;SDS011;43160;51.008;18.248;2023-04-06T18:46:50;14.70;;;5.30;;
57323;SDS011;43160;51.008;18.248;2023-04-06T18:56:34;15.30;;;5.50;;
57323;SDS011;43160;51.008;18.248;2023-04-06T19:03:53;29.50;;;14.90;;
57323;SDS011;43160;51.008;18.248;2023-04-06T19:13:38;27.80;;;8.70;;
57323;SDS011;43160;51.008;18.248;2023-04-06T19:23:28;15.80;;;7.30;;
57323;SDS011;43160;51.008;18.248;2023-04-06T19:33:11;25.20;;;7.50;;
57323;SDS011;43160;51.008;18.248;2023-04-06T19:42:55;22.40;;;9.70;;
57323;SDS011;43160;51.008;18.248;2023-04-06T19:59:55;18.80;;;6.90;;
57323;SDS011;43160;51.008;18.248;2023-04-06T20:09:38;14.40;;;6.70;;
57323;SDS011;43160;51.008;18.248;2023-04-06T20:19:22;21.60;;;8.90;;
57323;SDS011;43160;51.008;18.248;2023-04-06T20:29:05;21.00;;;10.50;;
57323;SDS011;43160;51.008;18.248;2023-04-06T20:38:49;31.90;;;13.10;;
57323;SDS011;43160;51.008;18.248;2023-04-06T20:48:33;23.90;;;11.00;;
57323;SDS011;43160;51.008;18.248;2023-04-06T20:58:22;27.20;;;12.90;;
57323;SDS011;43160;51.008;18.248;2023-04-06T21:08:14;29.90;;;14.10;;
57323;SDS011;43160;51.008;18.248;2023-04-06T21:17:57;21.50;;;8.10;;
57323;SDS011;43160;51.008;18.248;2023-04-06T21:27:40;21.90;;;11.00;;
57323;SDS011;43160;51.008;18.248;2023-04-06T21:37:22;31.80;;;13.10;;
57323;SDS011;43160;51.008;18.248;2023-04-06T21:47:06;31.60;;;14.70;;
57323;SDS011;43160;51.008;18.248;2023-04-06T21:56:48;34.70;;;15.30;;
57323;SDS011;43160;51.008;18.248;2023-04-06T22:06:31;39.10;;;17.10;;
57323;SDS011;43160;51.008;18.248;2023-04-06T22:16:16;35.90;;;15.50;;
57323;SDS011;43160;51.008;18.248;2023-04-06T22:26:00;40.50;;;17.70;;
57323;SDS011;43160;51.008;18.248;2023-04-06T22:35:43;44.40;;;16.40;;
57323;SDS011;43160;51.008;18.248;2023-04-06T22:45:26;56.80;;;15.90;;
57323;SDS011;43160;51.008;18.248;2023-04-06T22:55:09;35.00;;;15.90;;
57323;SDS011;43160;51.008;18.248;2023-04-06T23:04:55;39.10;;;17.60;;
57323;SDS011;43160;51.008;18.248;2023-04-06T23:14:38;37.40;;;17.80;;
57323;SDS011;43160;51.008;18.248;2023-04-06T23:24:23;33.20;;;14.50;;
57323;SDS011;43160;51.008;18.248;2023-04-06T23:34:06;44.30;;;17.20;;
57323;SDS011;43160;51.008;18.248;2023-04-06T23:43:50;54.20;;;18.20;;
57323;SDS011;43160;51.008;18.248;2023-04-06T23:53:34;45.20;;;18.40;;
